Terminal Aerodrome Forecast
Issued by NWS Twin Cities, MN

Home | Current Version | Previous Version | Text Only | Print | Product List | Glossary On
Versions: 1 2 3 4 5 6 7 8 9 10 11 12 13 14 15 16 17 18 19 20 21 22 23
228
FTUS43 KMPX 211128
TAFMSP
TAF
KMSP 211128Z 2112/2218 31021G35KT 6SM -SN BKN030 OVC050
     FM211500 31021G33KT P6SM BKN035
     FM211800 32021G30KT P6SM SCT040
     FM212200 32015G23KT P6SM SKC
     FM220100 31011KT P6SM SKC
     FM220500 30005KT P6SM FEW250
     FM221400 21004KT P6SM BKN250=

USA.gov is the U.S. government's official web portal to all federal, state and local government web resources and services.